Time;durP1;ratioP1;P1;durP2;ratioP2;P2;SDS_P1;SDS_P2;PMS_P1;PMS_P2;Temp;Humidity;BMP_temperature;BMP_pressure;BME280_temperature;BME280_humidity;BME280_pressure;Samples;Min_cycle;Max_cycle;Signal;HPM_P1;HPM_P2
2023/10/03 12:23:45;;;;;;;;;6.00;5.00;;;;;;;;6259622;22;1607291;-73
2023/10/03 12:26:10;;;;;;;;;6.00;3.67;;;;;;;;6339638;22;45428;-72
2023/10/03 12:28:35;;;;;;;;;4.00;4.00;;;;;;;;6340493;22;45238;-71
2023/10/03 12:31:00;;;;;;;;;3.67;3.67;;;;;;;;6340706;22;45337;-74
2023/10/03 12:33:26;;;;;;;;;6.33;5.33;;;;;;;;6340499;22;45594;-74
2023/10/03 12:35:51;;;;;;;;;6.00;4.00;;;;;;;;6340347;22;45585;-75
2023/10/03 12:38:16;;;;;;;;;4.67;4.67;;;;;;;;6339302;22;45277;-74
2023/10/03 12:40:42;;;;;;;;;2.67;2.00;;;;;;;;6340760;22;45438;-75
2023/10/03 12:43:09;;;;;;;;;5.00;4.00;;;;;;;;6339946;22;45282;-74
2023/10/03 12:45:35;;;;;;;;;4.67;4.67;;;;;;;;6339519;22;45238;-74
2023/10/03 12:48:00;;;;;;;;;3.33;3.33;;;;;;;;6339340;22;45328;-74
2023/10/03 12:50:27;;;;;;;;;1.33;0.33;;;;;;;;6340655;22;45213;-74
2023/10/03 12:52:57;;;;;;;;;3.00;2.00;;;;;;;;6339584;22;45444;-74
2023/10/03 12:55:25;;;;;;;;;2.00;2.00;;;;;;;;6340366;22;45588;-74
2023/10/03 12:57:51;;;;;;;;;3.67;2.00;;;;;;;;6340051;22;45390;-75
2023/10/03 13:00:19;;;;;;;;;5.00;2.00;;;;;;;;6312137;22;45110;-74
2023/10/03 13:02:45;;;;;;;;;1.33;1.33;;;;;;;;6311515;22;45234;-74
2023/10/03 13:05:12;;;;;;;;;4.00;3.00;;;;;;;;6340511;22;45396;-74
2023/10/03 13:07:37;;;;;;;;;2.00;2.00;;;;;;;;6339712;22;45207;-75
2023/10/03 13:10:06;;;;;;;;;3.00;3.00;;;;;;;;6311977;22;45244;-75
2023/10/03 13:12:32;;;;;;;;;6.33;3.00;;;;;;;;6339442;22;45396;-75
2023/10/03 13:14:57;;;;;;;;;2.33;1.67;;;;;;;;6311879;22;46003;-75
2023/10/03 13:17:23;;;;;;;;;2.67;2.67;;;;;;;;6339868;22;45225;-74
2023/10/03 13:19:48;;;;;;;;;1.67;1.67;;;;;;;;6340248;22;45167;-76
2023/10/03 13:22:14;;;;;;;;;2.00;2.00;;;;;;;;6338418;22;45226;-75
2023/10/03 13:24:39;;;;;;;;;2.00;2.00;;;;;;;;6340381;22;46186;-75
2023/10/03 13:27:05;;;;;;;;;3.67;3.67;;;;;;;;6339822;22;45181;-74
2023/10/03 13:29:31;;;;;;;;;3.33;2.00;;;;;;;;6340196;22;45250;-74
2023/10/03 13:31:56;;;;;;;;;2.00;2.00;;;;;;;;6339215;22;45238;-74
2023/10/03 13:34:21;;;;;;;;;1.67;1.67;;;;;;;;6339772;22;45286;-74
2023/10/03 13:36:47;;;;;;;;;3.00;2.00;;;;;;;;6339433;22;45390;-74
2023/10/03 13:39:13;;;;;;;;;2.67;2.00;;;;;;;;6340370;22;45191;-74
2023/10/03 13:41:42;;;;;;;;;0.67;0.67;;;;;;;;6339703;22;45499;-74
2023/10/03 13:44:09;;;;;;;;;3.00;3.00;;;;;;;;6310562;22;45661;-74
2023/10/03 13:46:36;;;;;;;;;2.00;2.00;;;;;;;;6339286;22;45313;-74
2023/10/03 13:49:01;;;;;;;;;5.33;2.00;;;;;;;;6311514;22;45390;-74
2023/10/03 13:51:30;;;;;;;;;4.00;2.75;;;;;;;;6339225;22;45371;-73
2023/10/03 13:53:57;;;;;;;;;2.33;2.33;;;;;;;;6337462;22;46372;-74
2023/10/03 13:56:22;;;;;;;;;1.00;1.00;;;;;;;;6340802;22;45226;-74
2023/10/03 13:58:49;;;;;;;;;3.00;1.00;;;;;;;;6341637;22;45423;-74
2023/10/03 14:01:15;;;;;;;;;3.00;2.00;;;;;;;;6341454;22;45471;-73
2023/10/03 14:03:42;;;;;;;;;2.00;2.00;;;;;;;;6341307;22;46507;-74
2023/10/03 14:06:10;;;;;;;;;3.25;2.00;;;;;;;;6341228;22;45355;-74
2023/10/03 14:08:35;;;;;;;;;2.50;2.50;;;;;;;;6340940;22;45222;-74
2023/10/03 14:11:01;;;;;;;;;1.25;1.25;;;;;;;;6341378;22;45261;-74
2023/10/03 14:13:26;;;;;;;;;1.25;1.25;;;;;;;;6341599;22;45272;-74
2023/10/03 14:15:51;;;;;;;;;1.25;1.00;;;;;;;;6342093;22;45135;-74
2023/10/03 14:18:17;;;;;;;;;4.50;2.25;;;;;;;;6313939;22;45218;-75
2023/10/03 14:20:42;;;;;;;;;3.00;1.00;;;;;;;;6313644;22;45504;-74
2023/10/03 14:23:11;;;;;;;;;3.75;1.00;;;;;;;;6340654;22;46488;-74
2023/10/03 14:25:37;;;;;;;;;3.00;2.00;;;;;;;;6340175;22;45229;-73
2023/10/03 14:28:02;;;;;;;;;1.00;1.00;;;;;;;;6341641;22;45467;-74
2023/10/03 14:30:28;;;;;;;;;2.00;2.00;;;;;;;;6341612;22;45159;-74
2023/10/03 14:32:53;;;;;;;;;2.75;2.75;;;;;;;;6341334;22;45266;-74
2023/10/03 14:35:18;;;;;;;;;0.75;0.75;;;;;;;;6342005;22;45247;-74
2023/10/03 14:37:44;;;;;;;;;2.25;2.25;;;;;;;;6313387;22;45290;-74
2023/10/03 14:40:15;;;;;;;;;1.50;1.50;;;;;;;;6341916;22;45098;-74
2023/10/03 14:42:40;;;;;;;;;3.25;1.00;;;;;;;;6313128;22;46274;-74
2023/10/03 14:45:08;;;;;;;;;1.00;1.00;;;;;;;;6342038;22;45317;-74
2023/10/03 14:47:33;;;;;;;;;1.00;1.00;;;;;;;;6313862;22;45318;-74
2023/10/03 14:49:58;;;;;;;;;1.00;1.00;;;;;;;;6341848;22;45242;-73
2023/10/03 14:52:23;;;;;;;;;3.00;1.00;;;;;;;;6341431;22;45233;-74
2023/10/03 14:54:49;;;;;;;;;3.50;1.00;;;;;;;;6341955;22;45375;-73
2023/10/03 14:57:15;;;;;;;;;2.00;0.50;;;;;;;;6342243;22;45256;-74
2023/10/03 14:59:40;;;;;;;;;1.00;1.00;;;;;;;;6341226;22;45264;-75
2023/10/03 15:02:07;;;;;;;;;2.00;2.00;;;;;;;;6341859;22;45576;-76
2023/10/03 15:04:33;;;;;;;;;0.00;0.00;;;;;;;;6341573;22;45174;-77
2023/10/03 15:06:59;;;;;;;;;1.00;1.00;;;;;;;;6341470;22;45135;-80
2023/10/03 15:09:25;;;;;;;;;1.00;1.00;;;;;;;;6339358;22;45376;-74
2023/10/03 15:11:50;;;;;;;;;2.00;1.00;;;;;;;;6341705;22;45443;-73
2023/10/03 15:14:15;;;;;;;;;0.75;0.75;;;;;;;;6341504;22;45131;-73
2023/10/03 15:16:41;;;;;;;;;2.25;0.00;;;;;;;;6341896;22;45133;-74
2023/10/03 15:19:07;;;;;;;;;2.50;0.00;;;;;;;;6341402;22;45218;-74
2023/10/03 15:21:32;;;;;;;;;1.00;1.00;;;;;;;;6341199;22;46058;-73
2023/10/03 15:23:58;;;;;;;;;1.00;1.00;;;;;;;;6340933;22;45195;-74
2023/10/03 15:26:23;;;;;;;;;1.00;1.00;;;;;;;;6341783;22;45283;-74
2023/10/03 15:28:49;;;;;;;;;1.25;1.25;;;;;;;;6341078;22;45471;-74
2023/10/03 15:31:24;;;;;;;;;2.00;0.50;;;;;;;;6341382;22;45288;-73
2023/10/03 15:33:50;;;;;;;;;0.00;0.00;;;;;;;;6341611;22;45333;-74
2023/10/03 15:36:15;;;;;;;;;2.00;1.00;;;;;;;;6312513;22;45313;-73
2023/10/03 15:38:41;;;;;;;;;0.25;0.00;;;;;;;;6341446;22;45225;-74
2023/10/03 15:41:10;;;;;;;;;0.75;0.00;;;;;;;;6341031;22;45092;-74
2023/10/03 15:43:35;;;;;;;;;0.00;0.00;;;;;;;;6341754;22;45210;-74
2023/10/03 15:46:00;;;;;;;;;1.00;1.00;;;;;;;;6341574;22;45134;-73
2023/10/03 15:48:27;;;;;;;;;1.00;1.00;;;;;;;;6341563;22;45175;-73
2023/10/03 15:50:52;;;;;;;;;1.25;1.00;;;;;;;;6340905;22;46441;-73
2023/10/03 15:53:19;;;;;;;;;0.75;0.75;;;;;;;;6340638;22;45251;-73
2023/10/03 15:55:44;;;;;;;;;3.33;0.67;;;;;;;;6313285;22;45254;-74
2023/10/03 15:58:10;;;;;;;;;1.50;0.25;;;;;;;;6341300;22;45458;-74
2023/10/03 16:00:38;;;;;;;;;0.67;0.67;;;;;;;;6341327;22;45648;-75
2023/10/03 16:03:04;;;;;;;;;1.00;1.00;;;;;;;;6341399;22;45221;-72
2023/10/03 16:05:30;;;;;;;;;1.50;0.25;;;;;;;;6341519;22;45310;-72
2023/10/03 16:07:55;;;;;;;;;0.75;0.75;;;;;;;;6340718;22;45272;-73
2023/10/03 16:10:20;;;;;;;;;0.00;0.00;;;;;;;;6341256;22;45152;-74
2023/10/03 16:12:45;;;;;;;;;2.75;2.00;;;;;;;;6313125;22;45242;-74
2023/10/03 16:15:11;;;;;;;;;1.67;0.33;;;;;;;;6341561;22;45076;-73
2023/10/03 16:17:38;;;;;;;;;0.67;0.00;;;;;;;;6340703;22;45295;-72
2023/10/03 16:20:06;;;;;;;;;0.67;0.67;;;;;;;;6340297;22;45335;-73
2023/10/03 16:22:31;;;;;;;;;0.00;0.00;;;;;;;;6339747;22;45367;-73
2023/10/03 16:24:57;;;;;;;;;2.33;1.00;;;;;;;;6341287;22;45100;-72
2023/10/03 16:27:22;;;;;;;;;2.00;2.00;;;;;;;;6340719;22;45472;-74
2023/10/03 16:29:48;;;;;;;;;0.00;0.00;;;;;;;;6340359;22;46628;-73
2023/10/03 16:32:13;;;;;;;;;1.00;1.00;;;;;;;;6312238;22;45190;-73
2023/10/03 16:34:38;;;;;;;;;1.00;1.00;;;;;;;;6341236;22;45104;-74
2023/10/03 16:37:04;;;;;;;;;1.00;1.00;;;;;;;;6340593;22;45218;-74
2023/10/03 16:39:32;;;;;;;;;0.67;0.67;;;;;;;;6341077;22;45358;-74
2023/10/03 16:41:59;;;;;;;;;2.00;1.00;;;;;;;;6312639;22;45210;-73
2023/10/03 16:44:25;;;;;;;;;0.33;0.00;;;;;;;;6340566;22;45265;-72
2023/10/03 16:46:50;;;;;;;;;3.33;1.00;;;;;;;;6341163;22;45399;-73
2023/10/03 16:49:15;;;;;;;;;2.67;0.67;;;;;;;;6340660;22;45339;-73
2023/10/03 16:51:40;;;;;;;;;2.00;1.00;;;;;;;;6340449;22;45249;-74
2023/10/03 16:54:06;;;;;;;;;0.67;0.67;;;;;;;;6341125;22;45248;-73
2023/10/03 16:56:32;;;;;;;;;0.67;0.00;;;;;;;;6312356;22;45524;-74
2023/10/03 16:58:57;;;;;;;;;0.67;0.67;;;;;;;;6340514;22;45445;-74
2023/10/03 17:01:22;;;;;;;;;3.00;2.00;;;;;;;;6340677;22;45127;-74
2023/10/03 17:03:47;;;;;;;;;3.00;1.67;;;;;;;;6340992;22;45194;-74
2023/10/03 17:06:13;;;;;;;;;2.67;1.67;;;;;;;;6340547;22;45276;-74
2023/10/03 17:08:38;;;;;;;;;1.00;1.00;;;;;;;;6339722;22;46084;-73
2023/10/03 17:11:04;;;;;;;;;1.00;1.00;;;;;;;;6339232;22;45152;-72
2023/10/03 17:13:29;;;;;;;;;0.67;0.67;;;;;;;;6340479;22;45483;-72
2023/10/03 17:15:54;;;;;;;;;2.33;2.33;;;;;;;;6340004;22;45234;-72
2023/10/03 17:18:20;;;;;;;;;1.67;1.67;;;;;;;;6340463;22;45193;-73
2023/10/03 17:20:45;;;;;;;;;1.00;1.00;;;;;;;;6340112;22;45162;-72
2023/10/03 17:23:10;;;;;;;;;2.67;1.00;;;;;;;;6339854;22;45829;-73
2023/10/03 17:25:39;;;;;;;;;3.00;2.00;;;;;;;;6340205;22;45200;-73
2023/10/03 17:28:04;;;;;;;;;3.00;0.67;;;;;;;;6340218;22;46160;-73
2023/10/03 17:30:31;;;;;;;;;4.00;1.00;;;;;;;;6340413;22;45266;-73
2023/10/03 17:32:58;;;;;;;;;2.00;2.00;;;;;;;;6341808;22;45244;-73
2023/10/03 17:35:23;;;;;;;;;3.67;3.00;;;;;;;;6341282;22;45420;-73
2023/10/03 17:37:48;;;;;;;;;4.33;2.67;;;;;;;;6341142;22;45330;-73
2023/10/03 17:40:14;;;;;;;;;2.00;1.33;;;;;;;;6341273;22;45224;-73
2023/10/03 17:42:40;;;;;;;;;1.67;1.33;;;;;;;;6342085;22;45166;-73
2023/10/03 17:45:08;;;;;;;;;1.00;1.00;;;;;;;;6312819;22;45623;-73
2023/10/03 17:47:35;;;;;;;;;4.33;2.67;;;;;;;;6341553;22;45650;-72
2023/10/03 17:50:00;;;;;;;;;3.00;3.00;;;;;;;;6341156;22;45278;-73
2023/10/03 17:52:26;;;;;;;;;1.67;1.67;;;;;;;;6341352;22;45198;-73
2023/10/03 17:54:51;;;;;;;;;32.33;26.67;;;;;;;;6312656;22;45654;-73
2023/10/03 17:57:16;;;;;;;;;28.33;26.00;;;;;;;;6312370;22;47918;-73
2023/10/03 17:59:41;;;;;;;;;6.67;5.33;;;;;;;;6341255;22;45112;-73
2023/10/03 18:02:07;;;;;;;;;5.00;4.00;;;;;;;;6341901;22;45231;-74
2023/10/03 18:04:32;;;;;;;;;6.00;3.67;;;;;;;;6312743;22;45857;-73
2023/10/03 18:06:58;;;;;;;;;8.00;4.67;;;;;;;;6310703;22;47071;-72
2023/10/03 18:09:24;;;;;;;;;4.33;3.00;;;;;;;;6312481;22;45222;-72
2023/10/03 18:11:50;;;;;;;;;5.00;3.50;;;;;;;;6314131;22;45295;-73
2023/10/03 18:14:15;;;;;;;;;5.67;5.00;;;;;;;;6341024;22;45491;-73
2023/10/03 18:16:41;;;;;;;;;5.00;3.33;;;;;;;;6341534;22;46377;-72
2023/10/03 18:19:06;;;;;;;;;7.67;6.33;;;;;;;;6341438;22;45199;-72
2023/10/03 18:21:31;;;;;;;;;29.67;27.67;;;;;;;;6341195;22;45132;-72
2023/10/03 18:23:56;;;;;;;;;28.67;28.33;;;;;;;;6340877;22;45350;-72
2023/10/03 18:26:21;;;;;;;;;49.00;41.00;;;;;;;;6341132;22;45367;-72
2023/10/03 18:28:47;;;;;;;;;31.33;26.67;;;;;;;;6312637;22;45364;-72
2023/10/03 18:31:18;;;;;;;;;20.67;19.00;;;;;;;;6341333;22;45292;-72
2023/10/03 18:33:43;;;;;;;;;15.00;14.33;;;;;;;;6312827;22;46234;-72
2023/10/03 18:36:09;;;;;;;;;8.00;6.00;;;;;;;;6311664;22;47338;-72
2023/10/03 18:38:34;;;;;;;;;6.67;6.67;;;;;;;;6341160;22;45147;-72
2023/10/03 18:40:59;;;;;;;;;9.67;6.67;;;;;;;;6312013;22;45237;-72
2023/10/03 18:43:24;;;;;;;;;3.67;2.67;;;;;;;;6341565;22;45310;-72
2023/10/03 18:45:50;;;;;;;;;7.67;6.33;;;;;;;;6340341;22;45672;-72
2023/10/03 18:48:15;;;;;;;;;7.00;6.67;;;;;;;;6341276;22;45250;-71
2023/10/03 18:50:41;;;;;;;;;4.67;4.67;;;;;;;;6311291;22;45185;-71
2023/10/03 18:53:06;;;;;;;;;5.67;3.67;;;;;;;;6311251;22;46860;-71
2023/10/03 18:55:31;;;;;;;;;7.00;5.00;;;;;;;;6312501;22;47039;-71
2023/10/03 18:57:57;;;;;;;;;5.00;5.00;;;;;;;;6341329;22;45313;-71
2023/10/03 19:00:23;;;;;;;;;5.33;4.67;;;;;;;;6312961;22;45251;-72
2023/10/03 19:02:49;;;;;;;;;5.33;5.33;;;;;;;;6312651;22;46757;-72
2023/10/03 19:05:15;;;;;;;;;6.67;6.33;;;;;;;;6340592;22;46085;-73
2023/10/03 19:07:40;;;;;;;;;11.00;8.67;;;;;;;;6340469;22;45281;-72
2023/10/03 19:10:07;;;;;;;;;5.67;5.33;;;;;;;;6341105;22;45288;-72
2023/10/03 19:12:34;;;;;;;;;6.00;5.00;;;;;;;;6341118;22;45173;-72
2023/10/03 19:14:59;;;;;;;;;5.00;4.67;;;;;;;;6341013;22;45084;-72
2023/10/03 19:17:24;;;;;;;;;5.33;5.00;;;;;;;;6340772;22;45183;-72
2023/10/03 19:19:54;;;;;;;;;6.67;4.33;;;;;;;;6341120;22;45400;-72
2023/10/03 19:22:19;;;;;;;;;7.00;4.67;;;;;;;;6340042;22;45282;-72
2023/10/03 19:24:47;;;;;;;;;6.00;5.67;;;;;;;;6341164;22;45739;-72
2023/10/03 19:27:12;;;;;;;;;5.33;5.00;;;;;;;;6340882;22;45092;-72
2023/10/03 19:29:37;;;;;;;;;11.00;6.00;;;;;;;;6340998;22;45539;-72
